sensor_id;sensor_type;location;lat;lon;timestamp;temperature;humidity
69595;DHT22;56800;52.142;5.364;2023-05-23T00:02:22;16.00;70.90
69595;DHT22;56800;52.142;5.364;2023-05-23T00:04:49;16.00;71.00
69595;DHT22;56800;52.142;5.364;2023-05-23T00:07:15;15.90;71.00
69595;DHT22;56800;52.142;5.364;2023-05-23T00:09:42;15.90;71.10
69595;DHT22;56800;52.142;5.364;2023-05-23T00:12:09;15.80;71.20
69595;DHT22;56800;52.142;5.364;2023-05-23T00:14:35;15.80;71.20
69595;DHT22;56800;52.142;5.364;2023-05-23T00:17:02;15.80;71.30
69595;DHT22;56800;52.142;5.364;2023-05-23T00:19:30;15.70;71.40
69595;DHT22;56800;52.142;5.364;2023-05-23T00:21:57;15.70;71.40
69595;DHT22;56800;52.142;5.364;2023-05-23T00:24:24;15.70;71.40
69595;DHT22;56800;52.142;5.364;2023-05-23T00:26:51;15.70;71.40
69595;DHT22;56800;52.142;5.364;2023-05-23T00:29:18;15.70;71.50
69595;DHT22;56800;52.142;5.364;2023-05-23T00:31:45;15.70;71.50
69595;DHT22;56800;52.142;5.364;2023-05-23T00:34:13;15.60;71.50
69595;DHT22;56800;52.142;5.364;2023-05-23T00:36:40;15.50;71.60
69595;DHT22;56800;52.142;5.364;2023-05-23T00:39:09;15.50;71.60
69595;DHT22;56800;52.142;5.364;2023-05-23T00:41:53;15.40;71.70
69595;DHT22;56800;52.142;5.364;2023-05-23T00:44:20;15.40;71.90
69595;DHT22;56800;52.142;5.364;2023-05-23T00:46:54;15.30;71.90
69595;DHT22;56800;52.142;5.364;2023-05-23T00:49:22;15.30;72.10
69595;DHT22;56800;52.142;5.364;2023-05-23T00:51:50;15.20;72.10
69595;DHT22;56800;52.142;5.364;2023-05-23T00:54:22;15.20;72.10
69595;DHT22;56800;52.142;5.364;2023-05-23T00:56:50;15.20;72.20
69595;DHT22;56800;52.142;5.364;2023-05-23T00:59:16;15.10;72.20
69595;DHT22;56800;52.142;5.364;2023-05-23T01:01:43;15.10;72.40
69595;DHT22;56800;52.142;5.364;2023-05-23T01:04:13;15.10;72.50
69595;DHT22;56800;52.142;5.364;2023-05-23T01:06:40;15.00;72.50
69595;DHT22;56800;52.142;5.364;2023-05-23T01:09:07;15.00;72.70
69595;DHT22;56800;52.142;5.364;2023-05-23T01:14:22;14.90;72.80
69595;DHT22;56800;52.142;5.364;2023-05-23T01:16:56;14.90;73.00
69595;DHT22;56800;52.142;5.364;2023-05-23T01:22:29;14.90;73.30
69595;DHT22;56800;52.142;5.364;2023-05-23T01:27:52;14.90;73.50
69595;DHT22;56800;52.142;5.364;2023-05-23T01:30:22;14.90;73.70
69595;DHT22;56800;52.142;5.364;2023-05-23T01:32:50;14.90;73.60
69595;DHT22;56800;52.142;5.364;2023-05-23T01:35:24;14.90;73.70
69595;DHT22;56800;52.142;5.364;2023-05-23T01:37:55;14.90;73.80
69595;DHT22;56800;52.142;5.364;2023-05-23T01:40:23;14.90;73.80
69595;DHT22;56800;52.142;5.364;2023-05-23T01:42:51;14.90;73.80
69595;DHT22;56800;52.142;5.364;2023-05-23T01:45:19;14.90;73.90
69595;DHT22;56800;52.142;5.364;2023-05-23T01:47:49;14.90;73.90
69595;DHT22;56800;52.142;5.364;2023-05-23T01:50:16;14.90;74.00
69595;DHT22;56800;52.142;5.364;2023-05-23T01:52:47;14.90;74.00
69595;DHT22;56800;52.142;5.364;2023-05-23T01:55:16;14.90;74.00
69595;DHT22;56800;52.142;5.364;2023-05-23T01:57:54;14.90;74.00
69595;DHT22;56800;52.142;5.364;2023-05-23T02:00:22;14.90;74.00
69595;DHT22;56800;52.142;5.364;2023-05-23T02:02:48;14.90;73.90
69595;DHT22;56800;52.142;5.364;2023-05-23T02:05:15;14.90;73.80
69595;DHT22;56800;52.142;5.364;2023-05-23T02:07:42;15.00;73.90
69595;DHT22;56800;52.142;5.364;2023-05-23T02:10:09;15.00;73.80
69595;DHT22;56800;52.142;5.364;2023-05-23T02:12:36;15.00;73.80
69595;DHT22;56800;52.142;5.364;2023-05-23T02:15:03;15.00;73.70
69595;DHT22;56800;52.142;5.364;2023-05-23T02:17:29;15.00;73.70
69595;DHT22;56800;52.142;5.364;2023-05-23T02:19:56;15.00;74.50
69595;DHT22;56800;52.142;5.364;2023-05-23T02:22:23;15.00;73.70
69595;DHT22;56800;52.142;5.364;2023-05-23T02:24:51;14.90;74.40
69595;DHT22;56800;52.142;5.364;2023-05-23T02:27:18;15.00;73.70
69595;DHT22;56800;52.142;5.364;2023-05-23T02:29:45;15.00;73.60
69595;DHT22;56800;52.142;5.364;2023-05-23T02:32:11;14.90;73.40
69595;DHT22;56800;52.142;5.364;2023-05-23T02:34:38;14.90;73.40
69595;DHT22;56800;52.142;5.364;2023-05-23T02:37:06;14.90;73.40
69595;DHT22;56800;52.142;5.364;2023-05-23T02:39:35;14.90;73.40
69595;DHT22;56800;52.142;5.364;2023-05-23T02:42:02;14.90;73.40
69595;DHT22;56800;52.142;5.364;2023-05-23T02:44:28;14.90;73.40
69595;DHT22;56800;52.142;5.364;2023-05-23T02:46:55;14.90;73.50
69595;DHT22;56800;52.142;5.364;2023-05-23T02:49:22;15.00;73.50
69595;DHT22;56800;52.142;5.364;2023-05-23T02:51:49;15.00;73.30
69595;DHT22;56800;52.142;5.364;2023-05-23T02:54:16;15.00;73.30
69595;DHT22;56800;52.142;5.364;2023-05-23T02:56:44;15.00;73.30
69595;DHT22;56800;52.142;5.364;2023-05-23T02:59:11;15.00;73.20
69595;DHT22;56800;52.142;5.364;2023-05-23T03:01:38;15.00;73.20
69595;DHT22;56800;52.142;5.364;2023-05-23T03:04:04;15.00;73.20
69595;DHT22;56800;52.142;5.364;2023-05-23T03:06:31;15.00;73.20
69595;DHT22;56800;52.142;5.364;2023-05-23T03:09:00;15.00;73.10
69595;DHT22;56800;52.142;5.364;2023-05-23T03:11:26;15.00;73.20
69595;DHT22;56800;52.142;5.364;2023-05-23T03:13:55;15.00;73.10
69595;DHT22;56800;52.142;5.364;2023-05-23T03:16:22;15.00;73.10
69595;DHT22;56800;52.142;5.364;2023-05-23T03:18:49;15.00;73.10
69595;DHT22;56800;52.142;5.364;2023-05-23T03:21:16;15.00;73.00
69595;DHT22;56800;52.142;5.364;2023-05-23T03:23:43;14.90;72.90
69595;DHT22;56800;52.142;5.364;2023-05-23T03:26:09;14.90;72.90
69595;DHT22;56800;52.142;5.364;2023-05-23T03:28:37;14.90;72.90
69595;DHT22;56800;52.142;5.364;2023-05-23T03:31:04;14.90;72.80
69595;DHT22;56800;52.142;5.364;2023-05-23T03:33:30;14.90;73.50
69595;DHT22;56800;52.142;5.364;2023-05-23T03:35:57;14.80;72.60
69595;DHT22;56800;52.142;5.364;2023-05-23T03:38:24;14.80;72.60
69595;DHT22;56800;52.142;5.364;2023-05-23T03:40:51;14.80;72.60
69595;DHT22;56800;52.142;5.364;2023-05-23T03:43:18;14.80;72.60
69595;DHT22;56800;52.142;5.364;2023-05-23T03:45:44;14.80;72.70
69595;DHT22;56800;52.142;5.364;2023-05-23T03:48:11;14.80;72.60
69595;DHT22;56800;52.142;5.364;2023-05-23T03:50:38;14.80;72.60
69595;DHT22;56800;52.142;5.364;2023-05-23T03:53:05;14.70;72.50
69595;DHT22;56800;52.142;5.364;2023-05-23T03:55:32;14.70;72.60
69595;DHT22;56800;52.142;5.364;2023-05-23T03:57:59;14.70;72.60
69595;DHT22;56800;52.142;5.364;2023-05-23T04:00:26;14.70;72.60
69595;DHT22;56800;52.142;5.364;2023-05-23T04:02:53;14.70;72.50
69595;DHT22;56800;52.142;5.364;2023-05-23T04:05:19;14.60;72.50
69595;DHT22;56800;52.142;5.364;2023-05-23T04:07:47;14.60;72.50
69595;DHT22;56800;52.142;5.364;2023-05-23T04:10:14;14.60;72.50
69595;DHT22;56800;52.142;5.364;2023-05-23T04:12:41;14.60;72.60
69595;DHT22;56800;52.142;5.364;2023-05-23T04:15:08;14.50;72.70
69595;DHT22;56800;52.142;5.364;2023-05-23T04:17:35;14.50;72.70
69595;DHT22;56800;52.142;5.364;2023-05-23T04:20:08;14.50;72.70
69595;DHT22;56800;52.142;5.364;2023-05-23T04:22:38;14.40;72.70
69595;DHT22;56800;52.142;5.364;2023-05-23T04:25:05;14.40;72.80
69595;DHT22;56800;52.142;5.364;2023-05-23T04:27:32;14.40;72.70
69595;DHT22;56800;52.142;5.364;2023-05-23T04:30:00;14.40;72.80
69595;DHT22;56800;52.142;5.364;2023-05-23T04:32:27;14.40;72.70
69595;DHT22;56800;52.142;5.364;2023-05-23T04:34:53;14.30;72.60
69595;DHT22;56800;52.142;5.364;2023-05-23T04:37:22;14.30;72.60
69595;DHT22;56800;52.142;5.364;2023-05-23T04:39:51;14.30;72.60
69595;DHT22;56800;52.142;5.364;2023-05-23T04:42:18;14.30;72.60
69595;DHT22;56800;52.142;5.364;2023-05-23T04:44:50;14.30;72.60
69595;DHT22;56800;52.142;5.364;2023-05-23T04:47:18;14.20;72.60
69595;DHT22;56800;52.142;5.364;2023-05-23T04:49:44;14.20;72.60
69595;DHT22;56800;52.142;5.364;2023-05-23T04:52:11;14.20;72.40
69595;DHT22;56800;52.142;5.364;2023-05-23T04:54:38;14.20;72.30
69595;DHT22;56800;52.142;5.364;2023-05-23T04:57:10;14.10;72.30
69595;DHT22;56800;52.142;5.364;2023-05-23T04:59:37;14.10;72.30
69595;DHT22;56800;52.142;5.364;2023-05-23T05:02:05;14.10;72.40
69595;DHT22;56800;52.142;5.364;2023-05-23T05:04:32;14.00;72.20
69595;DHT22;56800;52.142;5.364;2023-05-23T05:06:58;14.00;72.20
69595;DHT22;56800;52.142;5.364;2023-05-23T05:09:25;14.00;72.20
69595;DHT22;56800;52.142;5.364;2023-05-23T05:11:52;14.00;72.20
69595;DHT22;56800;52.142;5.364;2023-05-23T05:14:18;13.90;72.10
69595;DHT22;56800;52.142;5.364;2023-05-23T05:16:45;13.90;72.00
69595;DHT22;56800;52.142;5.364;2023-05-23T05:19:14;13.90;72.10
69595;DHT22;56800;52.142;5.364;2023-05-23T05:21:41;13.90;72.00
69595;DHT22;56800;52.142;5.364;2023-05-23T05:24:08;13.80;71.80
69595;DHT22;56800;52.142;5.364;2023-05-23T05:26:35;13.90;71.70
69595;DHT22;56800;52.142;5.364;2023-05-23T05:29:02;13.80;71.60
69595;DHT22;56800;52.142;5.364;2023-05-23T05:31:29;13.80;71.50
69595;DHT22;56800;52.142;5.364;2023-05-23T05:33:56;13.80;71.20
69595;DHT22;56800;52.142;5.364;2023-05-23T05:36:23;13.80;70.90
69595;DHT22;56800;52.142;5.364;2023-05-23T05:38:49;13.80;70.80
69595;DHT22;56800;52.142;5.364;2023-05-23T05:41:16;13.80;70.60
69595;DHT22;56800;52.142;5.364;2023-05-23T05:43:43;13.80;70.40
69595;DHT22;56800;52.142;5.364;2023-05-23T05:46:10;13.80;70.20
69595;DHT22;56800;52.142;5.364;2023-05-23T05:48:37;13.80;70.00
69595;DHT22;56800;52.142;5.364;2023-05-23T05:51:03;13.90;70.00
69595;DHT22;56800;52.142;5.364;2023-05-23T05:53:30;13.90;69.80
69595;DHT22;56800;52.142;5.364;2023-05-23T05:55:57;13.90;69.50
69595;DHT22;56800;52.142;5.364;2023-05-23T05:58:23;13.90;69.40
69595;DHT22;56800;52.142;5.364;2023-05-23T06:00:50;13.90;69.40
69595;DHT22;56800;52.142;5.364;2023-05-23T06:03:17;13.90;69.30
69595;DHT22;56800;52.142;5.364;2023-05-23T06:05:43;13.90;69.40
69595;DHT22;56800;52.142;5.364;2023-05-23T06:08:10;13.90;69.30
69595;DHT22;56800;52.142;5.364;2023-05-23T06:10:37;13.90;69.20
69595;DHT22;56800;52.142;5.364;2023-05-23T06:13:07;13.90;69.10
69595;DHT22;56800;52.142;5.364;2023-05-23T06:15:34;13.80;69.00
69595;DHT22;56800;52.142;5.364;2023-05-23T06:18:00;13.90;68.90
69595;DHT22;56800;52.142;5.364;2023-05-23T06:20:27;13.90;68.80
69595;DHT22;56800;52.142;5.364;2023-05-23T06:22:54;13.80;68.70
69595;DHT22;56800;52.142;5.364;2023-05-23T06:25:21;13.80;68.60
69595;DHT22;56800;52.142;5.364;2023-05-23T06:27:48;13.80;68.60
69595;DHT22;56800;52.142;5.364;2023-05-23T06:30:15;13.80;68.50
69595;DHT22;56800;52.142;5.364;2023-05-23T06:32:42;13.80;68.40
69595;DHT22;56800;52.142;5.364;2023-05-23T06:35:09;13.80;68.50
69595;DHT22;56800;52.142;5.364;2023-05-23T06:37:35;13.80;68.50
69595;DHT22;56800;52.142;5.364;2023-05-23T06:40:02;13.80;68.60
69595;DHT22;56800;52.142;5.364;2023-05-23T06:42:29;13.80;68.60
69595;DHT22;56800;52.142;5.364;2023-05-23T06:44:56;13.80;68.70
69595;DHT22;56800;52.142;5.364;2023-05-23T06:47:23;13.80;68.80
69595;DHT22;56800;52.142;5.364;2023-05-23T06:49:49;13.80;68.90
69595;DHT22;56800;52.142;5.364;2023-05-23T06:52:16;13.80;69.00
69595;DHT22;56800;52.142;5.364;2023-05-23T06:54:43;13.80;69.10
69595;DHT22;56800;52.142;5.364;2023-05-23T06:57:09;13.70;69.10
69595;DHT22;56800;52.142;5.364;2023-05-23T06:59:36;13.70;69.30
69595;DHT22;56800;52.142;5.364;2023-05-23T07:02:03;13.70;69.50
69595;DHT22;56800;52.142;5.364;2023-05-23T07:04:30;13.70;69.60
69595;DHT22;56800;52.142;5.364;2023-05-23T07:06:56;13.70;69.70
69595;DHT22;56800;52.142;5.364;2023-05-23T07:09:23;13.70;69.90
69595;DHT22;56800;52.142;5.364;2023-05-23T07:11:50;13.70;70.30
69595;DHT22;56800;52.142;5.364;2023-05-23T07:14:16;13.70;70.50
69595;DHT22;56800;52.142;5.364;2023-05-23T07:16:43;13.60;70.70
69595;DHT22;56800;52.142;5.364;2023-05-23T07:19:11;13.60;70.80
69595;DHT22;56800;52.142;5.364;2023-05-23T07:21:38;13.60;70.80
69595;DHT22;56800;52.142;5.364;2023-05-23T07:24:05;13.60;71.00
69595;DHT22;56800;52.142;5.364;2023-05-23T07:26:32;13.60;71.00
69595;DHT22;56800;52.142;5.364;2023-05-23T07:28:58;13.60;70.80
69595;DHT22;56800;52.142;5.364;2023-05-23T07:31:25;13.70;70.60
69595;DHT22;56800;52.142;5.364;2023-05-23T07:33:52;13.70;70.30
69595;DHT22;56800;52.142;5.364;2023-05-23T07:36:22;13.90;70.10
69595;DHT22;56800;52.142;5.364;2023-05-23T07:38:49;13.90;69.80
69595;DHT22;56800;52.142;5.364;2023-05-23T07:41:15;14.00;69.60
69595;DHT22;56800;52.142;5.364;2023-05-23T07:43:42;14.00;69.10
69595;DHT22;56800;52.142;5.364;2023-05-23T07:46:09;14.00;68.80
69595;DHT22;56800;52.142;5.364;2023-05-23T07:48:36;14.00;68.50
69595;DHT22;56800;52.142;5.364;2023-05-23T07:51:03;14.10;68.40
69595;DHT22;56800;52.142;5.364;2023-05-23T07:53:30;14.10;68.20
69595;DHT22;56800;52.142;5.364;2023-05-23T07:55:56;14.20;67.70
69595;DHT22;56800;52.142;5.364;2023-05-23T07:58:23;14.20;67.40
69595;DHT22;56800;52.142;5.364;2023-05-23T08:00:50;14.20;67.30
69595;DHT22;56800;52.142;5.364;2023-05-23T08:03:18;14.30;67.40
69595;DHT22;56800;52.142;5.364;2023-05-23T08:05:46;14.30;67.20
69595;DHT22;56800;52.142;5.364;2023-05-23T08:08:12;14.30;67.10
69595;DHT22;56800;52.142;5.364;2023-05-23T08:10:39;14.30;66.80
69595;DHT22;56800;52.142;5.364;2023-05-23T08:13:08;14.30;66.70
69595;DHT22;56800;52.142;5.364;2023-05-23T08:15:35;14.30;66.60
69595;DHT22;56800;52.142;5.364;2023-05-23T08:18:03;14.30;66.50
69595;DHT22;56800;52.142;5.364;2023-05-23T08:20:30;14.30;66.40
69595;DHT22;56800;52.142;5.364;2023-05-23T08:23:01;14.30;66.30
69595;DHT22;56800;52.142;5.364;2023-05-23T08:25:29;14.30;66.10
69595;DHT22;56800;52.142;5.364;2023-05-23T08:28:00;14.30;65.80
69595;DHT22;56800;52.142;5.364;2023-05-23T08:30:27;14.30;65.80
69595;DHT22;56800;52.142;5.364;2023-05-23T08:32:55;14.40;65.90
69595;DHT22;56800;52.142;5.364;2023-05-23T08:35:22;14.50;65.30
69595;DHT22;56800;52.142;5.364;2023-05-23T08:37:50;14.60;65.10
69595;DHT22;56800;52.142;5.364;2023-05-23T08:40:19;14.60;64.80
69595;DHT22;56800;52.142;5.364;2023-05-23T08:42:48;14.70;64.60
69595;DHT22;56800;52.142;5.364;2023-05-23T08:45:15;14.70;64.20
69595;DHT22;56800;52.142;5.364;2023-05-23T08:47:43;14.80;64.00
69595;DHT22;56800;52.142;5.364;2023-05-23T08:50:15;14.90;63.80
69595;DHT22;56800;52.142;5.364;2023-05-23T08:52:53;15.00;63.50
69595;DHT22;56800;52.142;5.364;2023-05-23T08:55:23;15.20;63.20
69595;DHT22;56800;52.142;5.364;2023-05-23T08:57:54;15.20;62.60
69595;DHT22;56800;52.142;5.364;2023-05-23T09:00:21;15.20;62.40
69595;DHT22;56800;52.142;5.364;2023-05-23T09:02:50;15.30;62.50
69595;DHT22;56800;52.142;5.364;2023-05-23T09:05:17;15.40;62.00
69595;DHT22;56800;52.142;5.364;2023-05-23T09:07:45;15.50;62.00
69595;DHT22;56800;52.142;5.364;2023-05-23T09:10:18;15.60;61.70
69595;DHT22;56800;52.142;5.364;2023-05-23T09:12:48;15.70;61.20
69595;DHT22;56800;52.142;5.364;2023-05-23T09:15:15;15.80;61.20
69595;DHT22;56800;52.142;5.364;2023-05-23T09:17:43;15.80;61.10
69595;DHT22;56800;52.142;5.364;2023-05-23T09:20:15;15.80;61.10
69595;DHT22;56800;52.142;5.364;2023-05-23T09:22:48;15.80;61.00
69595;DHT22;56800;52.142;5.364;2023-05-23T09:25:15;15.80;61.00
69595;DHT22;56800;52.142;5.364;2023-05-23T09:27:42;15.90;61.30
69595;DHT22;56800;52.142;5.364;2023-05-23T09:30:13;16.00;61.20
69595;DHT22;56800;52.142;5.364;2023-05-23T09:32:40;16.00;60.80
69595;DHT22;56800;52.142;5.364;2023-05-23T09:35:08;16.10;60.80
69595;DHT22;56800;52.142;5.364;2023-05-23T09:37:44;16.10;60.50
69595;DHT22;56800;52.142;5.364;2023-05-23T09:40:14;16.20;60.10
69595;DHT22;56800;52.142;5.364;2023-05-23T09:42:46;16.30;60.60
69595;DHT22;56800;52.142;5.364;2023-05-23T09:45:14;16.60;60.40
69595;DHT22;56800;52.142;5.364;2023-05-23T09:47:51;16.80;59.40
69595;DHT22;56800;52.142;5.364;2023-05-23T09:50:19;16.90;58.60
69595;DHT22;56800;52.142;5.364;2023-05-23T09:52:46;16.80;58.00
69595;DHT22;56800;52.142;5.364;2023-05-23T09:55:13;16.80;57.80
69595;DHT22;56800;52.142;5.364;2023-05-23T09:57:42;16.70;58.10
69595;DHT22;56800;52.142;5.364;2023-05-23T10:00:10;16.80;58.30
69595;DHT22;56800;52.142;5.364;2023-05-23T10:05:08;16.90;58.40
69595;DHT22;56800;52.142;5.364;2023-05-23T10:07:36;17.00;58.10
69595;DHT22;56800;52.142;5.364;2023-05-23T10:10:05;17.10;57.50
69595;DHT22;56800;52.142;5.364;2023-05-23T10:12:46;17.10;56.70
69595;DHT22;56800;52.142;5.364;2023-05-23T10:15:15;17.00;56.30
69595;DHT22;56800;52.142;5.364;2023-05-23T10:17:56;16.90;56.70
69595;DHT22;56800;52.142;5.364;2023-05-23T10:20:31;16.90;57.10
69595;DHT22;56800;52.142;5.364;2023-05-23T10:22:59;16.80;57.40
69595;DHT22;56800;52.142;5.364;2023-05-23T10:25:27;16.80;57.70
69595;DHT22;56800;52.142;5.364;2023-05-23T10:27:55;16.70;57.80
69595;DHT22;56800;52.142;5.364;2023-05-23T10:30:29;16.80;58.00
69595;DHT22;56800;52.142;5.364;2023-05-23T10:32:56;16.80;57.90
69595;DHT22;56800;52.142;5.364;2023-05-23T10:38:45;16.90;56.60
69595;DHT22;56800;52.142;5.364;2023-05-23T10:41:38;16.80;56.70
69595;DHT22;56800;52.142;5.364;2023-05-23T10:46:57;16.80;57.30
69595;DHT22;56800;52.142;5.364;2023-05-23T10:49:47;16.90;56.60
69595;DHT22;56800;52.142;5.364;2023-05-23T10:52:17;16.80;56.10
69595;DHT22;56800;52.142;5.364;2023-05-23T10:54:53;16.80;56.20
69595;DHT22;56800;52.142;5.364;2023-05-23T10:57:24;16.80;56.30
69595;DHT22;56800;52.142;5.364;2023-05-23T10:59:54;16.80;56.40
69595;DHT22;56800;52.142;5.364;2023-05-23T11:02:26;16.90;56.90
69595;DHT22;56800;52.142;5.364;2023-05-23T11:05:21;17.00;56.60
69595;DHT22;56800;52.142;5.364;2023-05-23T11:08:09;17.20;55.70
69595;DHT22;56800;52.142;5.364;2023-05-23T11:13:20;17.50;54.90
69595;DHT22;56800;52.142;5.364;2023-05-23T11:15:47;17.60;54.10
69595;DHT22;56800;52.142;5.364;2023-05-23T11:18:26;17.70;53.70
69595;DHT22;56800;52.142;5.364;2023-05-23T11:20:54;17.70;53.50
69595;DHT22;56800;52.142;5.364;2023-05-23T11:23:23;17.60;53.80
69595;DHT22;56800;52.142;5.364;2023-05-23T11:26:04;17.50;54.00
69595;DHT22;56800;52.142;5.364;2023-05-23T11:28:55;17.50;54.40
69595;DHT22;56800;52.142;5.364;2023-05-23T11:31:23;17.50;54.10
69595;DHT22;56800;52.142;5.364;2023-05-23T11:33:54;17.50;54.00
69595;DHT22;56800;52.142;5.364;2023-05-23T11:36:21;17.60;53.40
69595;DHT22;56800;52.142;5.364;2023-05-23T11:38:51;17.60;53.10
69595;DHT22;56800;52.142;5.364;2023-05-23T11:41:18;17.60;53.10
69595;DHT22;56800;52.142;5.364;2023-05-23T11:43:49;17.70;53.10
69595;DHT22;56800;52.142;5.364;2023-05-23T11:46:17;17.70;52.70
69595;DHT22;56800;52.142;5.364;2023-05-23T11:48:45;17.70;52.50
69595;DHT22;56800;52.142;5.364;2023-05-23T11:51:12;17.70;52.40
69595;DHT22;56800;52.142;5.364;2023-05-23T11:53:39;17.80;52.70
69595;DHT22;56800;52.142;5.364;2023-05-23T11:56:06;18.00;52.50
69595;DHT22;56800;52.142;5.364;2023-05-23T11:58:38;18.10;51.70
69595;DHT22;56800;52.142;5.364;2023-05-23T12:01:06;18.20;51.30
69595;DHT22;56800;52.142;5.364;2023-05-23T12:03:34;18.20;51.30
69595;DHT22;56800;52.142;5.364;2023-05-23T12:06:01;18.20;51.40
69595;DHT22;56800;52.142;5.364;2023-05-23T12:08:28;18.20;51.10
69595;DHT22;56800;52.142;5.364;2023-05-23T12:10:59;18.20;50.90
69595;DHT22;56800;52.142;5.364;2023-05-23T12:13:30;18.20;51.10
69595;DHT22;56800;52.142;5.364;2023-05-23T12:15:59;18.40;51.10
69595;DHT22;56800;52.142;5.364;2023-05-23T12:18:28;18.30;50.30
69595;DHT22;56800;52.142;5.364;2023-05-23T12:21:01;18.20;50.10
69595;DHT22;56800;52.142;5.364;2023-05-23T12:23:29;18.10;50.30
69595;DHT22;56800;52.142;5.364;2023-05-23T12:25:58;18.00;50.80
69595;DHT22;56800;52.142;5.364;2023-05-23T12:28:42;18.00;50.90
69595;DHT22;56800;52.142;5.364;2023-05-23T12:31:16;18.10;51.10
69595;DHT22;56800;52.142;5.364;2023-05-23T12:33:44;18.10;51.20
69595;DHT22;56800;52.142;5.364;2023-05-23T12:36:12;18.30;51.10
69595;DHT22;56800;52.142;5.364;2023-05-23T12:38:39;18.30;50.30
69595;DHT22;56800;52.142;5.364;2023-05-23T12:41:15;18.10;50.50
69595;DHT22;56800;52.142;5.364;2023-05-23T12:43:53;18.10;49.40
69595;DHT22;56800;52.142;5.364;2023-05-23T12:46:21;18.10;49.30
69595;DHT22;56800;52.142;5.364;2023-05-23T12:48:49;18.10;49.70
69595;DHT22;56800;52.142;5.364;2023-05-23T12:51:16;18.00;50.10
69595;DHT22;56800;52.142;5.364;2023-05-23T12:53:43;18.00;50.60
69595;DHT22;56800;52.142;5.364;2023-05-23T12:56:10;18.00;50.80
69595;DHT22;56800;52.142;5.364;2023-05-23T12:58:37;18.10;50.50
69595;DHT22;56800;52.142;5.364;2023-05-23T13:01:04;18.10;51.00
69595;DHT22;56800;52.142;5.364;2023-05-23T13:03:30;18.30;51.10
69595;DHT22;56800;52.142;5.364;2023-05-23T13:05:58;18.50;50.60
69595;DHT22;56800;52.142;5.364;2023-05-23T13:08:25;18.60;50.20
69595;DHT22;56800;52.142;5.364;2023-05-23T13:10:55;18.80;49.60
69595;DHT22;56800;52.142;5.364;2023-05-23T13:13:22;18.80;48.90
69595;DHT22;56800;52.142;5.364;2023-05-23T13:15:49;18.70;48.50
69595;DHT22;56800;52.142;5.364;2023-05-23T13:18:17;18.50;48.20
69595;DHT22;56800;52.142;5.364;2023-05-23T13:20:44;18.40;48.60
69595;DHT22;56800;52.142;5.364;2023-05-23T13:23:12;18.50;48.70
69595;DHT22;56800;52.142;5.364;2023-05-23T13:25:39;18.50;48.70
69595;DHT22;56800;52.142;5.364;2023-05-23T13:28:06;18.50;48.90
69595;DHT22;56800;52.142;5.364;2023-05-23T13:30:33;18.40;48.90
69595;DHT22;56800;52.142;5.364;2023-05-23T13:32:59;18.40;49.60
69595;DHT22;56800;52.142;5.364;2023-05-23T13:35:26;18.60;50.10
69595;DHT22;56800;52.142;5.364;2023-05-23T13:37:53;18.90;50.00
69595;DHT22;56800;52.142;5.364;2023-05-23T13:40:20;19.20;49.00
69595;DHT22;56800;52.142;5.364;2023-05-23T13:42:48;19.30;48.40
69595;DHT22;56800;52.142;5.364;2023-05-23T13:45:17;19.20;47.70
69595;DHT22;56800;52.142;5.364;2023-05-23T13:47:44;19.00;47.70
69595;DHT22;56800;52.142;5.364;2023-05-23T13:50:12;18.80;47.50
69595;DHT22;56800;52.142;5.364;2023-05-23T13:52:39;18.60;47.10
69595;DHT22;56800;52.142;5.364;2023-05-23T13:55:11;18.80;47.50
69595;DHT22;56800;52.142;5.364;2023-05-23T13:57:38;19.10;47.40
69595;DHT22;56800;52.142;5.364;2023-05-23T14:00:05;19.40;46.50
69595;DHT22;56800;52.142;5.364;2023-05-23T14:02:34;19.50;46.00
69595;DHT22;56800;52.142;5.364;2023-05-23T14:05:02;19.50;45.80
69595;DHT22;56800;52.142;5.364;2023-05-23T14:07:29;19.70;45.80
69595;DHT22;56800;52.142;5.364;2023-05-23T14:09:56;19.80;45.30
69595;DHT22;56800;52.142;5.364;2023-05-23T14:12:23;20.00;45.30
69595;DHT22;56800;52.142;5.364;2023-05-23T14:14:50;20.20;45.00
69595;DHT22;56800;52.142;5.364;2023-05-23T14:17:17;20.20;44.00
69595;DHT22;56800;52.142;5.364;2023-05-23T14:19:45;20.10;43.70
69595;DHT22;56800;52.142;5.364;2023-05-23T14:22:12;20.00;44.10
69595;DHT22;56800;52.142;5.364;2023-05-23T14:24:39;20.00;44.60
69595;DHT22;56800;52.142;5.364;2023-05-23T14:27:06;20.00;44.80
69595;DHT22;56800;52.142;5.364;2023-05-23T14:29:36;19.90;44.80
69595;DHT22;56800;52.142;5.364;2023-05-23T14:32:03;20.00;44.40
69595;DHT22;56800;52.142;5.364;2023-05-23T14:34:30;19.90;44.10
69595;DHT22;56800;52.142;5.364;2023-05-23T14:36:57;19.90;44.50
69595;DHT22;56800;52.142;5.364;2023-05-23T14:39:24;19.90;44.50
69595;DHT22;56800;52.142;5.364;2023-05-23T14:41:51;19.80;44.60
69595;DHT22;56800;52.142;5.364;2023-05-23T14:44:18;19.70;44.70
69595;DHT22;56800;52.142;5.364;2023-05-23T14:46:44;19.70;45.20
69595;DHT22;56800;52.142;5.364;2023-05-23T14:49:16;19.80;45.10
69595;DHT22;56800;52.142;5.364;2023-05-23T14:51:43;19.80;44.80
69595;DHT22;56800;52.142;5.364;2023-05-23T14:54:16;19.70;44.80
69595;DHT22;56800;52.142;5.364;2023-05-23T14:56:42;19.80;44.50
69595;DHT22;56800;52.142;5.364;2023-05-23T14:59:09;19.80;44.20
69595;DHT22;56800;52.142;5.364;2023-05-23T15:01:36;19.90;44.00
69595;DHT22;56800;52.142;5.364;2023-05-23T15:04:06;19.80;43.40
69595;DHT22;56800;52.142;5.364;2023-05-23T15:06:35;19.70;43.30
69595;DHT22;56800;52.142;5.364;2023-05-23T15:09:03;19.60;42.90
69595;DHT22;56800;52.142;5.364;2023-05-23T15:11:30;19.50;42.80
69595;DHT22;56800;52.142;5.364;2023-05-23T15:13:57;19.30;43.20
69595;DHT22;56800;52.142;5.364;2023-05-23T15:16:25;19.30;43.60
69595;DHT22;56800;52.142;5.364;2023-05-23T15:18:52;19.10;43.80
69595;DHT22;56800;52.142;5.364;2023-05-23T15:21:19;19.10;44.40
69595;DHT22;56800;52.142;5.364;2023-05-23T15:23:46;19.10;44.30
69595;DHT22;56800;52.142;5.364;2023-05-23T15:26:13;19.10;43.90
69595;DHT22;56800;52.142;5.364;2023-05-23T15:28:40;19.10;43.50
69595;DHT22;56800;52.142;5.364;2023-05-23T15:31:06;19.10;42.60
69595;DHT22;56800;52.142;5.364;2023-05-23T15:33:33;19.20;41.90
69595;DHT22;56800;52.142;5.364;2023-05-23T15:36:00;19.20;41.50
69595;DHT22;56800;52.142;5.364;2023-05-23T15:38:27;19.20;41.10
69595;DHT22;56800;52.142;5.364;2023-05-23T15:40:54;19.20;40.90
69595;DHT22;56800;52.142;5.364;2023-05-23T15:43:22;19.20;41.90
69595;DHT22;56800;52.142;5.364;2023-05-23T15:45:51;19.20;41.10
69595;DHT22;56800;52.142;5.364;2023-05-23T15:48:18;19.30;41.00
69595;DHT22;56800;52.142;5.364;2023-05-23T15:50:44;19.30;41.00
69595;DHT22;56800;52.142;5.364;2023-05-23T15:53:11;19.40;41.70
69595;DHT22;56800;52.142;5.364;2023-05-23T15:55:38;19.40;42.00
69595;DHT22;56800;52.142;5.364;2023-05-23T15:58:08;19.50;42.10